sensor_id;sensor_type;location;lat;lon;timestamp;temperature;humidity
13472;DHT22;6808;49.444;11.034;2023-04-03T00:01:13;4.50;95.60
13472;DHT22;6808;49.444;11.034;2023-04-03T00:03:39;4.50;95.60
13472;DHT22;6808;49.444;11.034;2023-04-03T00:06:05;4.40;95.80
13472;DHT22;6808;49.444;11.034;2023-04-03T00:08:32;4.50;95.90
13472;DHT22;6808;49.444;11.034;2023-04-03T00:10:58;4.50;95.60
13472;DHT22;6808;49.444;11.034;2023-04-03T00:13:23;4.50;95.90
13472;DHT22;6808;49.444;11.034;2023-04-03T00:15:49;4.50;95.70
13472;DHT22;6808;49.444;11.034;2023-04-03T00:18:15;4.50;95.80
13472;DHT22;6808;49.444;11.034;2023-04-03T00:20:41;4.50;96.10
13472;DHT22;6808;49.444;11.034;2023-04-03T00:23:06;4.50;96.50
13472;DHT22;6808;49.444;11.034;2023-04-03T00:25:32;4.40;96.30
13472;DHT22;6808;49.444;11.034;2023-04-03T00:27:58;4.40;96.50
13472;DHT22;6808;49.444;11.034;2023-04-03T00:30:24;4.40;96.40
13472;DHT22;6808;49.444;11.034;2023-04-03T00:32:50;4.40;96.10
13472;DHT22;6808;49.444;11.034;2023-04-03T00:35:16;4.40;96.40
13472;DHT22;6808;49.444;11.034;2023-04-03T00:37:42;4.40;96.30
13472;DHT22;6808;49.444;11.034;2023-04-03T00:40:09;4.30;96.10
13472;DHT22;6808;49.444;11.034;2023-04-03T00:42:36;4.30;96.30
13472;DHT22;6808;49.444;11.034;2023-04-03T00:47:28;4.30;95.80
13472;DHT22;6808;49.444;11.034;2023-04-03T00:49:54;4.30;95.80
13472;DHT22;6808;49.444;11.034;2023-04-03T00:52:25;4.20;95.70
13472;DHT22;6808;49.444;11.034;2023-04-03T00:54:54;4.20;96.00
13472;DHT22;6808;49.444;11.034;2023-04-03T00:57:23;4.30;96.30
13472;DHT22;6808;49.444;11.034;2023-04-03T00:59:51;4.20;96.20
13472;DHT22;6808;49.444;11.034;2023-04-03T01:02:20;4.20;96.20
13472;DHT22;6808;49.444;11.034;2023-04-03T01:04:45;4.20;96.20
13472;DHT22;6808;49.444;11.034;2023-04-03T01:07:21;4.20;96.30
13472;DHT22;6808;49.444;11.034;2023-04-03T01:09:48;4.20;96.20
13472;DHT22;6808;49.444;11.034;2023-04-03T01:12:30;4.20;95.90
13472;DHT22;6808;49.444;11.034;2023-04-03T01:14:59;4.20;96.00
13472;DHT22;6808;49.444;11.034;2023-04-03T01:26:11;4.10;95.40
13472;DHT22;6808;49.444;11.034;2023-04-03T01:28:32;4.10;95.80
13472;DHT22;6808;49.444;11.034;2023-04-03T01:31:24;4.10;95.60
13472;DHT22;6808;49.444;11.034;2023-04-03T01:33:51;4.00;94.80
13472;DHT22;6808;49.444;11.034;2023-04-03T01:36:24;4.10;95.40
13472;DHT22;6808;49.444;11.034;2023-04-03T01:38:52;4.20;95.70
13472;DHT22;6808;49.444;11.034;2023-04-03T01:41:18;4.20;95.90
13472;DHT22;6808;49.444;11.034;2023-04-03T01:43:44;4.20;95.90
13472;DHT22;6808;49.444;11.034;2023-04-03T01:46:10;4.20;95.80
13472;DHT22;6808;49.444;11.034;2023-04-03T01:48:35;4.10;95.90
13472;DHT22;6808;49.444;11.034;2023-04-03T01:51:01;4.00;95.30
13472;DHT22;6808;49.444;11.034;2023-04-03T01:53:27;4.00;95.30
13472;DHT22;6808;49.444;11.034;2023-04-03T01:55:52;3.90;95.30
13472;DHT22;6808;49.444;11.034;2023-04-03T01:58:18;3.90;95.80
13472;DHT22;6808;49.444;11.034;2023-04-03T02:00:43;4.00;95.90
13472;DHT22;6808;49.444;11.034;2023-04-03T02:03:09;3.90;95.70
13472;DHT22;6808;49.444;11.034;2023-04-03T02:05:34;3.90;95.40
13472;DHT22;6808;49.444;11.034;2023-04-03T02:08:00;3.80;95.50
13472;DHT22;6808;49.444;11.034;2023-04-03T02:10:26;3.80;95.60
13472;DHT22;6808;49.444;11.034;2023-04-03T02:12:51;3.80;95.80
13472;DHT22;6808;49.444;11.034;2023-04-03T02:15:17;3.80;95.90
13472;DHT22;6808;49.444;11.034;2023-04-03T02:17:43;3.80;96.10
13472;DHT22;6808;49.444;11.034;2023-04-03T02:20:08;3.80;96.10
13472;DHT22;6808;49.444;11.034;2023-04-03T02:22:34;3.80;96.30
13472;DHT22;6808;49.444;11.034;2023-04-03T02:25:00;3.80;96.00
13472;DHT22;6808;49.444;11.034;2023-04-03T02:27:26;3.80;96.00
13472;DHT22;6808;49.444;11.034;2023-04-03T02:29:51;3.80;95.80
13472;DHT22;6808;49.444;11.034;2023-04-03T02:32:17;3.70;95.60
13472;DHT22;6808;49.444;11.034;2023-04-03T02:34:42;3.70;95.90
13472;DHT22;6808;49.444;11.034;2023-04-03T02:37:08;3.70;95.90
13472;DHT22;6808;49.444;11.034;2023-04-03T02:39:34;3.60;96.00
13472;DHT22;6808;49.444;11.034;2023-04-03T02:41:59;3.60;96.00
13472;DHT22;6808;49.444;11.034;2023-04-03T02:44:25;3.50;95.80
13472;DHT22;6808;49.444;11.034;2023-04-03T02:46:51;3.50;96.10
13472;DHT22;6808;49.444;11.034;2023-04-03T02:49:16;3.50;96.20
13472;DHT22;6808;49.444;11.034;2023-04-03T02:51:42;3.50;96.40
13472;DHT22;6808;49.444;11.034;2023-04-03T02:54:08;3.50;96.90
13472;DHT22;6808;49.444;11.034;2023-04-03T02:56:35;3.50;96.70
13472;DHT22;6808;49.444;11.034;2023-04-03T02:59:00;3.50;96.70
13472;DHT22;6808;49.444;11.034;2023-04-03T03:01:26;3.50;97.00
13472;DHT22;6808;49.444;11.034;2023-04-03T03:03:56;3.50;97.10
13472;DHT22;6808;49.444;11.034;2023-04-03T03:06:22;3.50;97.30
13472;DHT22;6808;49.444;11.034;2023-04-03T03:08:48;3.60;97.30
13472;DHT22;6808;49.444;11.034;2023-04-03T03:11:13;3.60;97.40
13472;DHT22;6808;49.444;11.034;2023-04-03T03:13:39;3.50;97.30
13472;DHT22;6808;49.444;11.034;2023-04-03T03:16:04;3.40;97.40
13472;DHT22;6808;49.444;11.034;2023-04-03T03:18:31;3.40;97.50
13472;DHT22;6808;49.444;11.034;2023-04-03T03:20:58;3.40;97.70
13472;DHT22;6808;49.444;11.034;2023-04-03T03:23:25;3.40;97.90
13472;DHT22;6808;49.444;11.034;2023-04-03T03:26:02;3.40;98.10
13472;DHT22;6808;49.444;11.034;2023-04-03T03:28:28;3.30;98.10
13472;DHT22;6808;49.444;11.034;2023-04-03T03:30:54;3.30;98.30
13472;DHT22;6808;49.444;11.034;2023-04-03T03:33:19;3.30;98.40
13472;DHT22;6808;49.444;11.034;2023-04-03T03:35:45;3.30;98.60
13472;DHT22;6808;49.444;11.034;2023-04-03T03:38:11;3.30;98.80
13472;DHT22;6808;49.444;11.034;2023-04-03T03:40:37;3.30;99.00
13472;DHT22;6808;49.444;11.034;2023-04-03T03:43:02;3.20;99.00
13472;DHT22;6808;49.444;11.034;2023-04-03T03:45:28;3.20;99.10
13472;DHT22;6808;49.444;11.034;2023-04-03T03:47:53;3.10;99.20
13472;DHT22;6808;49.444;11.034;2023-04-03T03:50:19;3.10;99.40
13472;DHT22;6808;49.444;11.034;2023-04-03T03:52:45;3.20;99.50
13472;DHT22;6808;49.444;11.034;2023-04-03T03:55:11;3.10;99.50
13472;DHT22;6808;49.444;11.034;2023-04-03T03:57:36;3.10;99.60
13472;DHT22;6808;49.444;11.034;2023-04-03T04:00:03;3.00;99.20
13472;DHT22;6808;49.444;11.034;2023-04-03T04:02:29;3.00;99.30
13472;DHT22;6808;49.444;11.034;2023-04-03T04:04:55;3.10;99.60
13472;DHT22;6808;49.444;11.034;2023-04-03T04:07:20;3.00;99.60
13472;DHT22;6808;49.444;11.034;2023-04-03T04:09:46;3.00;99.70
13472;DHT22;6808;49.444;11.034;2023-04-03T04:12:11;3.00;99.60
13472;DHT22;6808;49.444;11.034;2023-04-03T04:14:37;3.00;99.60
13472;DHT22;6808;49.444;11.034;2023-04-03T04:17:03;3.00;99.60
13472;DHT22;6808;49.444;11.034;2023-04-03T04:19:28;3.00;99.90
13472;DHT22;6808;49.444;11.034;2023-04-03T04:21:54;3.00;99.90
13472;DHT22;6808;49.444;11.034;2023-04-03T04:24:20;3.00;99.80
13472;DHT22;6808;49.444;11.034;2023-04-03T04:26:45;2.90;99.80
13472;DHT22;6808;49.444;11.034;2023-04-03T04:29:11;3.00;99.90
13472;DHT22;6808;49.444;11.034;2023-04-03T04:31:36;3.00;99.90
13472;DHT22;6808;49.444;11.034;2023-04-03T04:34:02;3.00;99.90
13472;DHT22;6808;49.444;11.034;2023-04-03T04:36:28;3.20;99.90
13472;DHT22;6808;49.444;11.034;2023-04-03T04:38:53;2.90;99.90
13472;DHT22;6808;49.444;11.034;2023-04-03T04:41:22;2.90;99.90
13472;DHT22;6808;49.444;11.034;2023-04-03T04:43:49;2.90;99.90
13472;DHT22;6808;49.444;11.034;2023-04-03T04:46:15;2.90;99.90
13472;DHT22;6808;49.444;11.034;2023-04-03T04:48:41;2.90;99.90
13472;DHT22;6808;49.444;11.034;2023-04-03T04:51:07;2.90;99.90
13472;DHT22;6808;49.444;11.034;2023-04-03T04:53:32;2.90;99.90
13472;DHT22;6808;49.444;11.034;2023-04-03T04:55:58;2.80;99.90
13472;DHT22;6808;49.444;11.034;2023-04-03T04:58:24;2.80;99.90
13472;DHT22;6808;49.444;11.034;2023-04-03T05:00:58;2.80;99.90
13472;DHT22;6808;49.444;11.034;2023-04-03T05:03:24;2.80;99.90
13472;DHT22;6808;49.444;11.034;2023-04-03T05:05:49;2.90;99.90
13472;DHT22;6808;49.444;11.034;2023-04-03T05:08:15;2.90;99.90
13472;DHT22;6808;49.444;11.034;2023-04-03T05:10:40;2.90;99.90
13472;DHT22;6808;49.444;11.034;2023-04-03T05:13:07;2.90;99.90
13472;DHT22;6808;49.444;11.034;2023-04-03T05:15:32;2.80;99.90
13472;DHT22;6808;49.444;11.034;2023-04-03T05:17:58;2.80;99.90
13472;DHT22;6808;49.444;11.034;2023-04-03T05:20:24;2.80;99.90
13472;DHT22;6808;49.444;11.034;2023-04-03T05:22:50;2.80;99.90
13472;DHT22;6808;49.444;11.034;2023-04-03T05:25:15;2.90;99.90
13472;DHT22;6808;49.444;11.034;2023-04-03T05:27:41;3.00;99.90
13472;DHT22;6808;49.444;11.034;2023-04-03T05:30:07;2.90;99.90
13472;DHT22;6808;49.444;11.034;2023-04-03T05:32:32;2.90;99.90
13472;DHT22;6808;49.444;11.034;2023-04-03T05:34:58;2.90;99.90
13472;DHT22;6808;49.444;11.034;2023-04-03T05:37:24;2.80;99.90
13472;DHT22;6808;49.444;11.034;2023-04-03T05:39:49;2.80;99.90
13472;DHT22;6808;49.444;11.034;2023-04-03T05:42:15;2.90;99.90
13472;DHT22;6808;49.444;11.034;2023-04-03T05:44:41;2.80;99.90
13472;DHT22;6808;49.444;11.034;2023-04-03T05:47:07;2.90;99.90
13472;DHT22;6808;49.444;11.034;2023-04-03T05:49:32;3.00;99.90
13472;DHT22;6808;49.444;11.034;2023-04-03T05:51:58;3.00;99.90
13472;DHT22;6808;49.444;11.034;2023-04-03T05:54:28;3.00;99.90
13472;DHT22;6808;49.444;11.034;2023-04-03T05:56:54;3.10;99.90
13472;DHT22;6808;49.444;11.034;2023-04-03T05:59:20;3.10;99.90
13472;DHT22;6808;49.444;11.034;2023-04-03T06:01:46;3.10;99.90
13472;DHT22;6808;49.444;11.034;2023-04-03T06:04:12;3.10;99.90
13472;DHT22;6808;49.444;11.034;2023-04-03T06:06:51;3.20;99.90
13472;DHT22;6808;49.444;11.034;2023-04-03T06:09:19;3.20;99.90
13472;DHT22;6808;49.444;11.034;2023-04-03T06:11:45;3.10;99.90
13472;DHT22;6808;49.444;11.034;2023-04-03T06:14:11;3.10;99.90
13472;DHT22;6808;49.444;11.034;2023-04-03T06:16:36;3.10;99.90
13472;DHT22;6808;49.444;11.034;2023-04-03T06:19:03;3.10;99.90
13472;DHT22;6808;49.444;11.034;2023-04-03T06:21:29;3.10;99.90
13472;DHT22;6808;49.444;11.034;2023-04-03T06:23:55;3.20;99.90
13472;DHT22;6808;49.444;11.034;2023-04-03T06:26:21;3.10;99.60
13472;DHT22;6808;49.444;11.034;2023-04-03T06:28:47;3.20;99.90
13472;DHT22;6808;49.444;11.034;2023-04-03T06:31:13;3.10;99.60
13472;DHT22;6808;49.444;11.034;2023-04-03T06:33:39;3.20;99.70
13472;DHT22;6808;49.444;11.034;2023-04-03T06:36:05;3.20;99.90
13472;DHT22;6808;49.444;11.034;2023-04-03T06:38:34;3.20;99.40
13472;DHT22;6808;49.444;11.034;2023-04-03T06:41:00;3.10;99.40
13472;DHT22;6808;49.444;11.034;2023-04-03T06:43:25;3.20;99.30
13472;DHT22;6808;49.444;11.034;2023-04-03T06:45:51;3.20;99.30
13472;DHT22;6808;49.444;11.034;2023-04-03T06:48:17;3.20;99.20
13472;DHT22;6808;49.444;11.034;2023-04-03T06:50:42;3.20;99.00
13472;DHT22;6808;49.444;11.034;2023-04-03T06:53:08;3.20;99.10
13472;DHT22;6808;49.444;11.034;2023-04-03T06:55:34;2.80;98.90
13472;DHT22;6808;49.444;11.034;2023-04-03T06:58:00;3.20;99.00
13472;DHT22;6808;49.444;11.034;2023-04-03T07:00:25;3.30;98.80
13472;DHT22;6808;49.444;11.034;2023-04-03T07:02:51;3.30;98.70
13472;DHT22;6808;49.444;11.034;2023-04-03T07:05:17;3.30;98.70
13472;DHT22;6808;49.444;11.034;2023-04-03T07:07:43;3.30;98.60
13472;DHT22;6808;49.444;11.034;2023-04-03T07:10:09;3.30;98.30
13472;DHT22;6808;49.444;11.034;2023-04-03T07:12:35;3.30;98.40
13472;DHT22;6808;49.444;11.034;2023-04-03T07:15:01;3.30;98.30
13472;DHT22;6808;49.444;11.034;2023-04-03T07:17:28;3.40;98.30
13472;DHT22;6808;49.444;11.034;2023-04-03T07:19:53;3.40;97.80
13472;DHT22;6808;49.444;11.034;2023-04-03T07:22:19;3.40;98.00
13472;DHT22;6808;49.444;11.034;2023-04-03T07:24:45;3.50;98.30
13472;DHT22;6808;49.444;11.034;2023-04-03T07:27:11;3.60;98.30
13472;DHT22;6808;49.444;11.034;2023-04-03T07:29:38;3.60;97.80
13472;DHT22;6808;49.444;11.034;2023-04-03T07:32:04;3.60;97.70
13472;DHT22;6808;49.444;11.034;2023-04-03T07:34:31;3.60;97.80
13472;DHT22;6808;49.444;11.034;2023-04-03T07:36:56;3.70;97.50
13472;DHT22;6808;49.444;11.034;2023-04-03T07:39:22;3.70;97.30
13472;DHT22;6808;49.444;11.034;2023-04-03T07:41:47;3.70;97.10
13472;DHT22;6808;49.444;11.034;2023-04-03T07:44:13;3.70;97.00
13472;DHT22;6808;49.444;11.034;2023-04-03T07:46:38;3.70;96.70
13472;DHT22;6808;49.444;11.034;2023-04-03T07:49:04;3.70;96.70
13472;DHT22;6808;49.444;11.034;2023-04-03T07:51:29;3.70;96.70
13472;DHT22;6808;49.444;11.034;2023-04-03T07:53:56;3.80;96.80
13472;DHT22;6808;49.444;11.034;2023-04-03T07:56:21;3.80;96.60
13472;DHT22;6808;49.444;11.034;2023-04-03T07:58:48;3.90;96.50
13472;DHT22;6808;49.444;11.034;2023-04-03T08:01:13;3.90;96.30
13472;DHT22;6808;49.444;11.034;2023-04-03T08:03:39;3.90;96.10
13472;DHT22;6808;49.444;11.034;2023-04-03T08:06:06;3.90;96.20
13472;DHT22;6808;49.444;11.034;2023-04-03T08:08:33;4.00;96.50
13472;DHT22;6808;49.444;11.034;2023-04-03T08:11:00;4.10;96.50
13472;DHT22;6808;49.444;11.034;2023-04-03T08:13:27;4.10;96.10
13472;DHT22;6808;49.444;11.034;2023-04-03T08:15:53;4.10;96.10
13472;DHT22;6808;49.444;11.034;2023-04-03T08:18:18;4.20;96.20
13472;DHT22;6808;49.444;11.034;2023-04-03T08:20:47;4.30;96.10
13472;DHT22;6808;49.444;11.034;2023-04-03T08:23:12;4.40;96.30
13472;DHT22;6808;49.444;11.034;2023-04-03T08:25:43;4.50;96.00
13472;DHT22;6808;49.444;11.034;2023-04-03T08:28:09;4.70;96.20
13472;DHT22;6808;49.444;11.034;2023-04-03T08:30:38;4.70;95.30
13472;DHT22;6808;49.444;11.034;2023-04-03T08:33:03;4.80;95.70
13472;DHT22;6808;49.444;11.034;2023-04-03T08:35:29;4.90;95.10
13472;DHT22;6808;49.444;11.034;2023-04-03T08:37:55;4.90;94.40
13472;DHT22;6808;49.444;11.034;2023-04-03T08:40:22;5.00;94.20
13472;DHT22;6808;49.444;11.034;2023-04-03T08:45:53;5.10;93.60
13472;DHT22;6808;49.444;11.034;2023-04-03T08:48:26;5.20;94.10
13472;DHT22;6808;49.444;11.034;2023-04-03T08:50:59;5.50;93.80
13472;DHT22;6808;49.444;11.034;2023-04-03T08:53:28;5.80;92.40
13472;DHT22;6808;49.444;11.034;2023-04-03T08:59:26;5.60;91.80
13472;DHT22;6808;49.444;11.034;2023-04-03T09:01:52;5.80;91.80
13472;DHT22;6808;49.444;11.034;2023-04-03T09:04:18;5.90;91.00
13472;DHT22;6808;49.444;11.034;2023-04-03T09:06:47;6.00;91.00
13472;DHT22;6808;49.444;11.034;2023-04-03T09:09:24;6.10;90.40
13472;DHT22;6808;49.444;11.034;2023-04-03T09:12:27;6.10;88.90
13472;DHT22;6808;49.444;11.034;2023-04-03T09:17:35;5.80;81.80
13472;DHT22;6808;49.444;11.034;2023-04-03T09:20:40;5.80;82.80
13472;DHT22;6808;49.444;11.034;2023-04-03T09:25:46;5.80;84.00
13472;DHT22;6808;49.444;11.034;2023-04-03T09:28:12;5.90;86.20
13472;DHT22;6808;49.444;11.034;2023-04-03T09:30:38;5.90;85.30
13472;DHT22;6808;49.444;11.034;2023-04-03T09:33:04;5.90;84.60
13472;DHT22;6808;49.444;11.034;2023-04-03T09:35:37;5.80;83.80
13472;DHT22;6808;49.444;11.034;2023-04-03T09:40:41;5.70;83.00
13472;DHT22;6808;49.444;11.034;2023-04-03T09:45:49;5.60;82.20
13472;DHT22;6808;49.444;11.034;2023-04-03T09:48:20;5.60;85.40
13472;DHT22;6808;49.444;11.034;2023-04-03T09:50:56;5.70;84.00
13472;DHT22;6808;49.444;11.034;2023-04-03T09:55:59;5.80;79.50
13472;DHT22;6808;49.444;11.034;2023-04-03T10:00:57;5.70;76.20
13472;DHT22;6808;49.444;11.034;2023-04-03T10:03:34;5.60;76.50
13472;DHT22;6808;49.444;11.034;2023-04-03T10:06:02;5.60;76.90
13472;DHT22;6808;49.444;11.034;2023-04-03T10:08:31;5.70;78.40
13472;DHT22;6808;49.444;11.034;2023-04-03T10:11:17;5.70;75.90
13472;DHT22;6808;49.444;11.034;2023-04-03T10:14:00;5.80;77.10
13472;DHT22;6808;49.444;11.034;2023-04-03T10:16:36;5.80;74.80
13472;DHT22;6808;49.444;11.034;2023-04-03T10:19:19;5.80;76.30
13472;DHT22;6808;49.444;11.034;2023-04-03T10:22:04;5.80;76.90
13472;DHT22;6808;49.444;11.034;2023-04-03T10:25:08;5.90;75.90
13472;DHT22;6808;49.444;11.034;2023-04-03T10:27:56;5.90;72.80
13472;DHT22;6808;49.444;11.034;2023-04-03T10:30:36;5.70;71.50
13472;DHT22;6808;49.444;11.034;2023-04-03T10:33:36;5.70;72.00
13472;DHT22;6808;49.444;11.034;2023-04-03T10:39:08;5.80;72.80
13472;DHT22;6808;49.444;11.034;2023-04-03T10:42:15;6.00;75.10
13472;DHT22;6808;49.444;11.034;2023-04-03T10:57:58;6.20;77.10
13472;DHT22;6808;49.444;11.034;2023-04-03T11:00:40;6.30;70.10
13472;DHT22;6808;49.444;11.034;2023-04-03T11:05:50;6.10;64.00
13472;DHT22;6808;49.444;11.034;2023-04-03T11:08:28;6.10;64.20
13472;DHT22;6808;49.444;11.034;2023-04-03T11:10:59;6.20;63.90
13472;DHT22;6808;49.444;11.034;2023-04-03T11:13:53;6.30;66.60
13472;DHT22;6808;49.444;11.034;2023-04-03T11:16:27;6.40;67.20
13472;DHT22;6808;49.444;11.034;2023-04-03T11:19:18;6.50;66.60
13472;DHT22;6808;49.444;11.034;2023-04-03T11:22:11;6.50;66.20
13472;DHT22;6808;49.444;11.034;2023-04-03T11:24:42;6.50;65.10
13472;DHT22;6808;49.444;11.034;2023-04-03T11:27:16;6.60;64.80
13472;DHT22;6808;49.444;11.034;2023-04-03T11:29:45;6.70;60.90
13472;DHT22;6808;49.444;11.034;2023-04-03T11:32:17;6.90;59.40
13472;DHT22;6808;49.444;11.034;2023-04-03T11:34:47;7.20;60.00
13472;DHT22;6808;49.444;11.034;2023-04-03T11:42:42;7.20;61.20
13472;DHT22;6808;49.444;11.034;2023-04-03T11:45:29;7.30;59.00
13472;DHT22;6808;49.444;11.034;2023-04-03T12:14:03;7.90;55.90
13472;DHT22;6808;49.444;11.034;2023-04-03T12:16:41;8.00;57.60
13472;DHT22;6808;49.444;11.034;2023-04-03T12:19:32;7.90;56.10
13472;DHT22;6808;49.444;11.034;2023-04-03T12:24:26;8.50;57.20
13472;DHT22;6808;49.444;11.034;2023-04-03T12:27:03;8.60;55.40
13472;DHT22;6808;49.444;11.034;2023-04-03T12:43:02;9.00;57.40
13472;DHT22;6808;49.444;11.034;2023-04-03T12:45:46;9.20;57.10
13472;DHT22;6808;49.444;11.034;2023-04-03T12:48:15;9.40;55.20
13472;DHT22;6808;49.444;11.034;2023-04-03T12:50:45;9.50;57.00
13472;DHT22;6808;49.444;11.034;2023-04-03T12:53:33;9.70;57.20
13472;DHT22;6808;49.444;11.034;2023-04-03T12:58:48;9.80;54.30
13472;DHT22;6808;49.444;11.034;2023-04-03T13:01:16;9.70;52.90
13472;DHT22;6808;49.444;11.034;2023-04-03T13:03:50;9.30;51.00
13472;DHT22;6808;49.444;11.034;2023-04-03T13:06:22;9.00;51.80
13472;DHT22;6808;49.444;11.034;2023-04-03T13:08:54;9.10;53.40
13472;DHT22;6808;49.444;11.034;2023-04-03T13:11:21;9.10;51.00
13472;DHT22;6808;49.444;11.034;2023-04-03T13:14:00;9.00;50.40
13472;DHT22;6808;49.444;11.034;2023-04-03T13:16:27;9.00;49.60
13472;DHT22;6808;49.444;11.034;2023-04-03T13:18:54;9.10;50.10
13472;DHT22;6808;49.444;11.034;2023-04-03T13:21:24;9.10;50.10
13472;DHT22;6808;49.444;11.034;2023-04-03T13:23:54;9.40;50.80
13472;DHT22;6808;49.444;11.034;2023-04-03T13:26:27;9.60;51.60
13472;DHT22;6808;49.444;11.034;2023-04-03T13:28:59;9.90;54.80
13472;DHT22;6808;49.444;11.034;2023-04-03T13:31:29;10.10;52.00
13472;DHT22;6808;49.444;11.034;2023-04-03T13:34:01;9.80;49.40
13472;DHT22;6808;49.444;11.034;2023-04-03T13:36:34;9.60;50.00
13472;DHT22;6808;49.444;11.034;2023-04-03T13:39:18;9.60;50.20
13472;DHT22;6808;49.444;11.034;2023-04-03T13:41:51;9.80;53.30
13472;DHT22;6808;49.444;11.034;2023-04-03T13:44:29;9.90;51.10
13472;DHT22;6808;49.444;11.034;2023-04-03T13:49:58;10.10;50.90
13472;DHT22;6808;49.444;11.034;2023-04-03T13:52:28;10.30;50.60
13472;DHT22;6808;49.444;11.034;2023-04-03T13:54:58;10.10;48.70
13472;DHT22;6808;49.444;11.034;2023-04-03T13:57:24;10.10;50.20
13472;DHT22;6808;49.444;11.034;2023-04-03T13:59:50;10.20;51.90
13472;DHT22;6808;49.444;11.034;2023-04-03T14:02:31;10.10;49.40
13472;DHT22;6808;49.444;11.034;2023-04-03T14:04:59;10.00;50.10
13472;DHT22;6808;49.444;11.034;2023-04-03T14:07:27;9.80;49.70
13472;DHT22;6808;49.444;11.034;2023-04-03T14:09:53;9.90;50.60
13472;DHT22;6808;49.444;11.034;2023-04-03T14:12:30;9.70;49.90
13472;DHT22;6808;49.444;11.034;2023-04-03T14:14:57;9.50;50.20
13472;DHT22;6808;49.444;11.034;2023-04-03T14:17:24;9.40;50.10
13472;DHT22;6808;49.444;11.034;2023-04-03T14:19:53;9.40;50.20
13472;DHT22;6808;49.444;11.034;2023-04-03T14:22:28;9.50;51.40
13472;DHT22;6808;49.444;11.034;2023-04-03T14:24:55;9.70;49.40
13472;DHT22;6808;49.444;11.034;2023-04-03T14:27:27;9.60;48.30
13472;DHT22;6808;49.444;11.034;2023-04-03T14:29:55;9.60;49.30
13472;DHT22;6808;49.444;11.034;2023-04-03T14:32:23;9.40;48.30
13472;DHT22;6808;49.444;11.034;2023-04-03T14:34:49;9.20;49.00
13472;DHT22;6808;49.444;11.034;2023-04-03T14:37:19;9.40;50.70
13472;DHT22;6808;49.444;11.034;2023-04-03T14:39:45;9.30;49.40
13472;DHT22;6808;49.444;11.034;2023-04-03T14:42:21;9.30;48.90
13472;DHT22;6808;49.444;11.034;2023-04-03T14:44:47;9.20;48.60
13472;DHT22;6808;49.444;11.034;2023-04-03T14:47:15;9.40;50.80
13472;DHT22;6808;49.444;11.034;2023-04-03T14:49:42;9.40;49.20
13472;DHT22;6808;49.444;11.034;2023-04-03T14:52:18;9.30;48.90
13472;DHT22;6808;49.444;11.034;2023-04-03T14:54:44;9.30;49.70
13472;DHT22;6808;49.444;11.034;2023-04-03T14:57:11;9.20;49.10
13472;DHT22;6808;49.444;11.034;2023-04-03T14:59:38;9.20;48.90
13472;DHT22;6808;49.444;11.034;2023-04-03T15:04:48;9.00;50.20
13472;DHT22;6808;49.444;11.034;2023-04-03T15:07:13;9.00;51.10
13472;DHT22;6808;49.444;11.034;2023-04-03T15:09:39;9.00;51.30
13472;DHT22;6808;49.444;11.034;2023-04-03T15:12:04;8.90;50.80
13472;DHT22;6808;49.444;11.034;2023-04-03T15:14:30;9.00;49.70
13472;DHT22;6808;49.444;11.034;2023-04-03T15:16:55;9.10;49.60
13472;DHT22;6808;49.444;11.034;2023-04-03T15:19:21;9.10;49.60
13472;DHT22;6808;49.444;11.034;2023-04-03T15:21:46;9.20;49.50
13472;DHT22;6808;49.444;11.034;2023-04-03T15:24:12;9.10;48.40
13472;DHT22;6808;49.444;11.034;2023-04-03T15:26:37;9.00;48.50
13472;DHT22;6808;49.444;11.034;2023-04-03T15:29:04;8.70;48.00
13472;DHT22;6808;49.444;11.034;2023-04-03T15:31:29;8.40;48.60
13472;DHT22;6808;49.444;11.034;2023-04-03T15:33:55;8.40;50.00
13472;DHT22;6808;49.444;11.034;2023-04-03T15:36:20;8.40;50.40
13472;DHT22;6808;49.444;11.034;2023-04-03T15:38:46;8.30;50.20
13472;DHT22;6808;49.444;11.034;2023-04-03T15:41:12;8.30;49.10
13472;DHT22;6808;49.444;11.034;2023-04-03T15:43:37;8.30;49.70
13472;DHT22;6808;49.444;11.034;2023-04-03T15:46:03;8.30;49.90
13472;DHT22;6808;49.444;11.034;2023-04-03T15:48:29;8.40;50.00
13472;DHT22;6808;49.444;11.034;2023-04-03T15:50:55;8.50;49.30
13472;DHT22;6808;49.444;11.034;2023-04-03T15:53:20;8.50;50.10
13472;DHT22;6808;49.444;11.034;2023-04-03T15:55:46;8.30;48.50
13472;DHT22;6808;49.444;11.034;2023-04-03T15:58:11;8.20;48.40
13472;DHT22;6808;49.444;11.034;2023-04-03T16:00:37;8.10;49.30
13472;DHT22;6808;49.444;11.034;2023-04-03T16:03:10;8.10;49.00
13472;DHT22;6808;49.444;11.034;2023-04-03T16:05:38;8.10;49.90
13472;DHT22;6808;49.444;11.034;2023-04-03T16:08:04;8.10;49.60
13472;DHT22;6808;49.444;11.034;2023-04-03T16:10:31;8.00;49.30
13472;DHT22;6808;49.444;11.034;2023-04-03T16:12:56;7.70;48.70
13472;DHT22;6808;49.444;11.034;2023-04-03T16:15:23;7.60;48.80
13472;DHT22;6808;49.444;11.034;2023-04-03T16:17:49;7.40;49.10
13472;DHT22;6808;49.444;11.034;2023-04-03T16:20:15;7.30;49.10
13472;DHT22;6808;49.444;11.034;2023-04-03T16:22:42;7.20;49.40
13472;DHT22;6808;49.444;11.034;2023-04-03T16:25:08;7.10;49.30
13472;DHT22;6808;49.444;11.034;2023-04-03T16:27:34;7.00;49.80
13472;DHT22;6808;49.444;11.034;2023-04-03T16:29:59;7.00;50.40
13472;DHT22;6808;49.444;11.034;2023-04-03T16:32:27;7.00;50.40
13472;DHT22;6808;49.444;11.034;2023-04-03T16:34:54;7.00;50.40
13472;DHT22;6808;49.444;11.034;2023-04-03T16:37:20;7.00;50.00
13472;DHT22;6808;49.444;11.034;2023-04-03T16:39:46;6.90;50.10
13472;DHT22;6808;49.444;11.034;2023-04-03T16:42:11;6.90;51.00
13472;DHT22;6808;49.444;11.034;2023-04-03T16:44:37;6.90;50.80
13472;DHT22;6808;49.444;11.034;2023-04-03T16:47:05;6.90;50.80
13472;DHT22;6808;49.444;11.034;2023-04-03T16:49:31;6.80;50.80
13472;DHT22;6808;49.444;11.034;2023-04-03T16:52:01;6.70;50.80
13472;DHT22;6808;49.444;11.034;2023-04-03T16:54:27;6.60;51.00
13472;DHT22;6808;49.444;11.034;2023-04-03T16:56:53;6.50;51.30
13472;DHT22;6808;49.444;11.034;2023-04-03T16:59:19;6.50;51.70
13472;DHT22;6808;49.444;11.034;2023-04-03T17:01:45;6.30;51.60
13472;DHT22;6808;49.444;11.034;2023-04-03T17:04:10;6.30;51.90
13472;DHT22;6808;49.444;11.034;2023-04-03T17:06:36;6.20;51.20
13472;DHT22;6808;49.444;11.034;2023-04-03T17:09:02;6.20;52.00
13472;DHT22;6808;49.444;11.034;2023-04-03T17:11:29;6.10;52.10
13472;DHT22;6808;49.444;11.034;2023-04-03T17:13:55;6.10;51.90
13472;DHT22;6808;49.444;11.034;2023-04-03T17:16:20;6.10;52.00
13472;DHT22;6808;49.444;11.034;2023-04-03T17:18:47;6.00;51.90
13472;DHT22;6808;49.444;11.034;2023-04-03T17:21:13;6.00;52.40
13472;DHT22;6808;49.444;11.034;2023-04-03T17:23:41;5.80;51.70
13472;DHT22;6808;49.444;11.034;2023-04-03T17:26:08;5.70;52.00
13472;DHT22;6808;49.444;11.034;2023-04-03T17:28:33;5.70;52.60
13472;DHT22;6808;49.444;11.034;2023-04-03T17:31:00;5.60;52.70
13472;DHT22;6808;49.444;11.034;2023-04-03T17:33:26;5.60;53.30
13472;DHT22;6808;49.444;11.034;2023-04-03T17:35:59;5.60;53.40
13472;DHT22;6808;49.444;11.034;2023-04-03T17:38:27;5.60;53.70
13472;DHT22;6808;49.444;11.034;2023-04-03T17:40:56;5.50;54.40